Time;durP1;ratioP1;P1;durP2;ratioP2;P2;SDS_P1;SDS_P2;PMS_P1;PMS_P2;Temp;Humidity;BMP_temperature;BMP_pressure;BME280_temperature;BME280_humidity;BME280_pressure;Samples;Min_cycle;Max_cycle;Signal;HPM_P1;HPM_P2
2023/07/01 00:02:00;;;;;;;;;;;;;;;19.92;100.00;99113.53;5072993;28;19920;-81
2023/07/01 00:04:25;;;;;;;;;;;;;;;19.92;100.00;99124.22;5073265;28;19992;-81
2023/07/01 00:06:51;;;;;;;;;;;;;;;19.92;100.00;99113.53;5073357;28;20384;-81
2023/07/01 00:09:16;;;;;;;;;;;;;;;19.93;100.00;99115.16;5072576;28;19920;-80
2023/07/01 00:11:41;;;;;;;;;;;;;;;19.93;100.00;99109.81;5071737;28;19924;-80
2023/07/01 00:14:07;;;;;;;;;;;;;;;19.91;100.00;99100.38;5072826;28;19924;-81
2023/07/01 00:16:32;;;;;;;;;;;;;;;19.85;100.00;99091.31;5071504;28;19920;-80
2023/07/01 00:18:57;;;;;;;;;;;;;;;19.83;100.00;99097.94;5073296;28;19928;-81
2023/07/01 00:21:23;;;;;;;;;;;;;;;19.83;100.00;99097.94;5067312;28;20303;-81
2023/07/01 00:23:48;;;;;;;;;;;;;;;19.83;100.00;99092.56;5072768;28;20313;-81
2023/07/01 00:26:13;;;;;;;;;;;;;;;19.81;100.00;99095.44;5072531;28;20414;-81
2023/07/01 00:28:39;;;;;;;;;;;;;;;19.80;100.00;99090.31;5069600;28;19960;-81
2023/07/01 00:31:04;;;;;;;;;;;;;;;19.81;100.00;99081.25;5063428;28;19959;-81
2023/07/01 00:33:29;;;;;;;;;;;;;;;19.82;100.00;99069.50;5088215;28;19924;-81
2023/07/01 00:35:55;;;;;;;;;;;;;;;19.82;100.00;99067.66;5072961;28;19966;-80
2023/07/01 00:38:20;;;;;;;;;;;;;;;19.78;100.00;99063.78;5072831;28;19916;-79
2023/07/01 00:40:45;;;;;;;;;;;;;;;19.77;100.00;99072.00;5072121;28;19923;-79
2023/07/01 00:43:11;;;;;;;;;;;;;;;19.71;100.00;99068.31;5066327;28;19970;-80
2023/07/01 00:45:36;;;;;;;;;;;;;;;19.70;100.00;99066.69;5072451;28;20011;-80
2023/07/01 00:48:02;;;;;;;;;;;;;;;19.69;100.00;99062.34;5070708;28;19916;-80
2023/07/01 00:50:27;;;;;;;;;;;;;;;19.70;100.00;99060.50;5072488;28;19931;-79
2023/07/01 00:52:53;;;;;;;;;;;;;;;19.69;100.00;99059.69;5072726;28;19955;-79
2023/07/01 00:55:19;;;;;;;;;;;;;;;19.70;100.00;99066.69;5071585;28;19923;-82
2023/07/01 00:57:44;;;;;;;;;;;;;;;19.72;100.00;99064.63;5070063;28;19920;-79
2023/07/01 01:00:11;;;;;;;;;;;;;;;19.74;100.00;99062.53;5070134;28;19924;-80
2023/07/01 01:03:04;;;;;;;;;;;;;;;19.76;100.00;99056.97;5070154;28;20373;-80
2023/07/01 01:05:42;;;;;;;;;;;;;;;19.76;100.00;99055.13;5082476;28;19916;-80
2023/07/01 01:08:19;;;;;;;;;;;;;;;19.75;100.00;99052.66;5067348;28;20687;-81
2023/07/01 01:10:47;;;;;;;;;;;;;;;19.75;100.00;99047.28;5069621;28;19925;-79
2023/07/01 01:13:14;;;;;;;;;;;;;;;19.76;100.00;99043.59;5070923;28;19924;-80
2023/07/01 01:15:40;;;;;;;;;;;;;;;19.73;100.00;99036.81;5066813;28;19926;-80
2023/07/01 01:18:06;;;;;;;;;;;;;;;19.71;100.00;99041.56;5071635;28;19971;-81
2023/07/01 01:20:33;;;;;;;;;;;;;;;19.70;100.00;99029.19;5070543;28;19963;-80
2023/07/01 01:23:03;;;;;;;;;;;;;;;19.68;100.00;99031.25;5072041;28;20676;-81
2023/07/01 01:25:31;;;;;;;;;;;;;;;19.69;100.00;99032.09;5066445;28;19939;-81
2023/07/01 01:27:57;;;;;;;;;;;;;;;19.70;100.00;99029.19;5069769;28;19917;-81
2023/07/01 01:30:25;;;;;;;;;;;;;;;19.70;100.00;99028.38;5066066;28;19917;-81
2023/07/01 01:32:51;;;;;;;;;;;;;;;19.69;100.00;99032.09;5071935;28;19924;-81
2023/07/01 01:35:16;;;;;;;;;;;;;;;19.65;100.00;99031.72;5071318;28;19917;-81
2023/07/01 01:37:45;;;;;;;;;;;;;;;19.67;100.00;99031.50;5071583;28;20376;-81
2023/07/01 01:40:27;;;;;;;;;;;;;;;19.69;100.00;99032.91;5071070;28;19969;-81
2023/07/01 01:42:55;;;;;;;;;;;;;;;19.67;100.00;99029.66;5069411;28;19970;-81
2023/07/01 01:45:21;;;;;;;;;;;;;;;19.68;100.00;99028.59;5065890;28;19916;-80
2023/07/01 01:47:49;;;;;;;;;;;;;;;19.67;100.00;99032.31;5071667;28;20322;-80
2023/07/01 01:50:15;;;;;;;;;;;;;;;19.67;100.00;99018.94;5071136;28;19923;-80
2023/07/01 01:52:41;;;;;;;;;;;;;;;19.65;100.00;99026.34;5069882;28;19917;-80
2023/07/01 01:55:08;;;;;;;;;;;;;;;19.61;100.00;99030.50;5069535;28;20292;-80
2023/07/01 01:57:33;;;;;;;;;;;;;;;19.62;100.00;99032.13;5066819;28;19970;-79
2023/07/01 01:59:58;;;;;;;;;;;;;;;19.58;100.00;99041.63;5064564;28;19916;-79
2023/07/01 02:02:23;;;;;;;;;;;;;;;19.55;100.00;99039.38;5069300;28;19920;-79
2023/07/01 02:04:49;;;;;;;;;;;;;;;19.56;100.00;99032.97;5070985;28;19920;-79
2023/07/01 02:07:14;;;;;;;;;;;;;;;19.55;100.00;99026.00;5070754;28;19985;-79
2023/07/01 02:09:39;;;;;;;;;;;;;;;19.48;100.00;99022.53;5071091;28;20022;-79
2023/07/01 02:12:05;;;;;;;;;;;;;;;19.48;100.00;99020.66;5065476;28;20383;-80
2023/07/01 02:14:31;;;;;;;;;;;;;;;19.47;100.00;99026.22;5070030;28;19968;-79
2023/07/01 02:16:57;;;;;;;;;;;;;;;19.47;100.00;99019.03;5070842;28;19974;-80
2023/07/01 02:19:22;;;;;;;;;;;;;;;19.50;100.00;99015.09;5069159;28;19920;-78
2023/07/01 02:21:47;;;;;;;;;;;;;;;19.51;100.00;99014.06;5069788;28;19923;-80
2023/07/01 02:24:13;;;;;;;;;;;;;;;19.53;100.00;99012.00;5070220;28;19917;-80
2023/07/01 02:26:38;;;;;;;;;;;;;;;19.55;100.00;99016.13;5070640;28;19916;-80
2023/07/01 02:29:04;;;;;;;;;;;;;;;19.59;100.00;99011.16;5070432;28;20407;-80
2023/07/01 02:31:29;;;;;;;;;;;;;;;19.62;100.00;99005.34;5070474;28;19951;-80
2023/07/01 02:33:59;;;;;;;;;;;;;;;19.62;100.00;99005.34;5065233;28;19916;-80
2023/07/01 02:36:25;;;;;;;;;;;;;;;19.62;100.00;99008.03;5069219;28;19981;-80
2023/07/01 02:38:50;;;;;;;;;;;;;;;19.64;100.00;99008.66;5065255;28;19916;-81
2023/07/01 02:41:15;;;;;;;;;;;;;;;19.66;100.00;99014.63;5081582;28;20277;-80
2023/07/01 02:43:41;;;;;;;;;;;;;;;19.62;100.00;99016.88;5070225;28;19920;-82
2023/07/01 02:46:06;;;;;;;;;;;;;;;19.60;100.00;99010.94;5069869;28;19916;-79
2023/07/01 02:48:31;;;;;;;;;;;;;;;19.59;100.00;99011.97;5064834;28;20442;-79
2023/07/01 02:50:56;;;;;;;;;;;;;;;19.59;100.00;99006.63;5069071;28;19916;-80
2023/07/01 02:53:22;;;;;;;;;;;;;;;19.57;100.00;99002.50;5064936;28;19974;-81
2023/07/01 02:55:47;;;;;;;;;;;;;;;19.58;100.00;99009.50;5069221;28;20265;-80
2023/07/01 02:58:12;;;;;;;;;;;;;;;19.58;100.00;99012.19;5069858;28;20370;-80
2023/07/01 03:00:38;;;;;;;;;;;;;;;19.57;100.00;99002.50;5070165;28;19916;-79
2023/07/01 03:03:06;;;;;;;;;;;;;;;19.54;100.00;99014.47;5064478;28;19958;-77
2023/07/01 03:05:35;;;;;;;;;;;;;;;19.54;100.00;99008.28;5050204;28;19981;-78
2023/07/01 03:08:00;;;;;;;;;;;;;;;19.55;100.00;99007.25;5064800;28;19923;-79
2023/07/01 03:10:26;;;;;;;;;;;;;;;19.54;100.00;99005.63;5083815;28;20014;-79
2023/07/01 03:12:52;;;;;;;;;;;;;;;19.53;100.00;99009.31;5067629;28;20012;-79
2023/07/01 03:15:18;;;;;;;;;;;;;;;19.52;100.00;99007.69;5070564;28;19916;-80
2023/07/01 03:17:43;;;;;;;;;;;;;;;19.52;100.00;99007.69;5073747;28;19961;-79
2023/07/01 03:20:22;;;;;;;;;;;;;;;19.47;100.00;99007.50;5073579;28;19920;-80
2023/07/01 03:22:50;;;;;;;;;;;;;;;19.52;100.00;99007.69;5068827;28;19916;-80
2023/07/01 03:25:16;;;;;;;;;;;;;;;19.52;100.00;99005.00;5072488;28;19977;-80
2023/07/01 03:27:42;;;;;;;;;;;;;;;19.52;100.00;99013.84;5068245;28;20012;-80
2023/07/01 03:30:13;;;;;;;;;;;;;;;19.50;100.00;99015.09;5051741;28;20280;-80
2023/07/01 03:32:40;;;;;;;;;;;;;;;19.51;100.00;99025.59;5052458;28;20361;-80
2023/07/01 03:35:05;;;;;;;;;;;;;;;19.50;100.00;99023.13;5073377;28;20426;-81
2023/07/01 03:37:31;;;;;;;;;;;;;;;19.50;100.00;99025.78;5073609;28;19935;-80
2023/07/01 03:39:56;;;;;;;;;;;;;;;19.50;100.00;99015.91;5073617;28;19970;-81
2023/07/01 03:42:21;;;;;;;;;;;;;;;19.50;100.00;99012.41;5072966;28;20019;-80
2023/07/01 03:44:47;;;;;;;;;;;;;;;19.49;100.00;99013.47;5073764;28;19947;-80
2023/07/01 03:47:13;;;;;;;;;;;;;;;19.49;100.00;99011.63;5072932;28;19971;-81
2023/07/01 03:49:38;;;;;;;;;;;;;;;19.48;100.00;99014.50;5073267;28;19917;-80
2023/07/01 03:52:04;;;;;;;;;;;;;;;19.47;100.00;99007.50;5073277;28;20291;-80
2023/07/01 03:54:29;;;;;;;;;;;;;;;19.48;100.00;99009.97;5073382;28;19916;-81
2023/07/01 03:56:54;;;;;;;;;;;;;;;19.48;100.00;99009.16;5073397;28;19958;-81
2023/07/01 03:59:20;;;;;;;;;;;;;;;19.48;100.00;99006.47;5068133;28;19921;-80
2023/07/01 04:01:45;;;;;;;;;;;;;;;19.49;100.00;99013.47;5073888;28;19920;-80
2023/07/01 04:04:10;;;;;;;;;;;;;;;19.50;100.00;99017.75;5073010;28;19951;-79
2023/07/01 04:06:36;;;;;;;;;;;;;;;19.50;100.00;99015.09;5073358;28;19961;-81
2023/07/01 04:09:01;;;;;;;;;;;;;;;19.51;100.00;99014.06;5073171;28;19924;-81
2023/07/01 04:11:27;;;;;;;;;;;;;;;19.51;100.00;99014.88;5069636;28;19986;-80
2023/07/01 04:13:52;;;;;;;;;;;;;;;19.52;100.00;99015.69;5072772;28;20330;-81
2023/07/01 04:16:18;;;;;;;;;;;;;;;19.51;100.00;99022.91;5073082;28;19924;-81
2023/07/01 04:18:43;;;;;;;;;;;;;;;19.52;100.00;99021.06;5073156;28;20015;-80
2023/07/01 04:21:08;;;;;;;;;;;;;;;19.54;100.00;99019.00;5070991;28;20367;-80
2023/07/01 04:23:34;;;;;;;;;;;;;;;19.54;100.00;99013.66;5073095;28;19955;-80
2023/07/01 04:25:59;;;;;;;;;;;;;;;19.54;100.00;99013.66;5073119;28;19916;-81
2023/07/01 04:28:25;;;;;;;;;;;;;;;19.51;100.00;99014.06;5072642;28;19924;-81
2023/07/01 04:30:50;;;;;;;;;;;;;;;19.52;100.00;99015.69;5073147;28;19970;-80
2023/07/01 04:33:16;;;;;;;;;;;;;;;19.52;100.00;99010.34;5072557;28;20388;-81
2023/07/01 04:35:41;;;;;;;;;;;;;;;19.55;100.00;99009.94;5072075;28;19916;-81
2023/07/01 04:38:06;;;;;;;;;;;;;;;19.54;100.00;99016.31;5072449;28;19916;-80
2023/07/01 04:40:32;;;;;;;;;;;;;;;19.59;100.00;99011.16;5066686;28;19925;-81
2023/07/01 04:42:57;;;;;;;;;;;;;;;19.61;100.00;99025.16;5521709;22;19927;-90
2023/07/01 04:45:22;;;;;;;;;;;;;;;19.62;100.00;99021.41;5071323;28;19920;-90
2023/07/01 04:47:48;;;;;;;;;;;;;;;19.65;100.00;99026.34;5067801;28;19917;-90
2023/07/01 04:50:13;;;;;;;;;;;;;;;19.62;100.00;99021.41;5072992;28;20011;-90
2023/07/01 04:52:38;;;;;;;;;;;;;;;19.64;100.00;99030.06;5071658;28;20419;-89
2023/07/01 04:55:04;;;;;;;;;;;;;;;19.66;100.00;99021.81;5072797;28;19917;-90
2023/07/01 04:57:29;;;;;;;;;;;;;;;19.67;100.00;99026.97;5071532;28;19924;-90
2023/07/01 04:59:55;;;;;;;;;;;;;;;19.64;100.00;99030.06;5072381;28;19916;-89
2023/07/01 05:02:20;;;;;;;;;;;;;;;19.67;100.00;99024.28;5072403;28;19924;-89
2023/07/01 05:04:46;;;;;;;;;;;;;;;19.64;100.00;99024.69;5073195;28;19924;-89
2023/07/01 05:07:11;;;;;;;;;;;;;;;19.69;100.00;99032.09;5072583;28;19955;-90
2023/07/01 05:09:36;;;;;;;;;;;;;;;19.69;100.00;99026.72;5072783;28;19927;-89
2023/07/01 05:12:02;;;;;;;;;;;;;;;19.71;100.00;99028.16;5072377;28;19962;-90
2023/07/01 05:14:28;;;;;;;;;;;;;;;19.74;100.00;99030.41;5072445;28;19920;-90
2023/07/01 05:16:53;;;;;;;;;;;;;;;19.80;100.00;99034.91;5078367;28;19916;-90
2023/07/01 05:19:19;;;;;;;;;;;;;;;19.84;100.00;99029.97;5082776;28;19923;-89
2023/07/01 05:21:51;;;;;;;;;;;;;;;19.86;100.00;99034.03;5089268;28;19920;-89
2023/07/01 05:24:17;;;;;;;;;;;;;;;19.87;100.00;99027.66;5076585;28;19920;-90
2023/07/01 05:26:48;;;;;;;;;;;;;;;19.88;100.00;99026.63;5088389;28;19916;-90
2023/07/01 05:29:14;;;;;;;;;;;;;;;19.90;100.00;99032.59;5075655;28;19917;-90
2023/07/01 05:31:40;;;;;;;;;;;;;;;19.93;100.00;99034.84;5076344;28;19939;-90
2023/07/01 05:34:05;;;;;;;;;;;;;;;19.95;100.00;99031.94;5072271;28;20352;-90
2023/07/01 05:36:31;;;;;;;;;;;;;;;19.95;100.00;99032.78;5075060;28;19916;-90
2023/07/01 05:38:57;;;;;;;;;;;;;;;19.95;100.00;99030.09;5067471;28;19960;-90
2023/07/01 05:41:22;;;;;;;;;;;;;;;19.97;100.00;99033.34;5072528;28;19966;-90
2023/07/01 05:43:49;;;;;;;;;;;;;;;19.96;100.00;99029.06;5072638;28;19943;-91
2023/07/01 05:46:14;;;;;;;;;;;;;;;19.98;100.00;99026.97;5066688;28;19939;-90
2023/07/01 05:48:40;;;;;;;;;;;;;;;19.99;100.00;99025.94;5072342;28;20391;-90
2023/07/01 05:51:06;;;;;;;;;;;;;;;20.02;100.00;99028.19;5072402;28;19957;-90
2023/07/01 05:53:31;;;;;;;;;;;;;;;20.04;100.00;99027.97;5072213;28;19971;-91
2023/07/01 05:55:56;;;;;;;;;;;;;;;20.06;100.00;99027.75;5072233;28;20050;-90
2023/07/01 05:58:22;;;;;;;;;;;;;;;20.04;100.00;99042.19;5071950;28;20223;-90
2023/07/01 06:00:47;;;;;;;;;;;;;;;20.04;100.00;99042.19;5070652;28;20368;-90
2023/07/01 06:03:13;;;;;;;;;;;;;;;20.05;100.00;99029.59;5073950;28;19985;-91
2023/07/01 06:05:39;;;;;;;;;;;;;;;20.04;100.00;99036.81;5072000;28;19916;-90
2023/07/01 06:08:04;;;;;;;;;;;;;;;20.09;100.00;99032.69;5071713;28;20395;-89
2023/07/01 06:10:29;;;;;;;;;;;;;;;20.05;100.00;99037.66;5071917;28;20007;-91
2023/07/01 06:12:55;;;;;;;;;;;;;;;20.11;100.00;99033.28;5072955;28;20247;-89
2023/07/01 06:15:20;;;;;;;;;;;;;;;20.11;100.00;99033.28;5066577;28;19920;-90
2023/07/01 06:17:45;;;;;;;;;;;;;;;20.13;100.00;99033.91;5067961;28;19968;-91
2023/07/01 06:20:11;;;;;;;;;;;;;;;20.15;100.00;99037.16;5065891;28;19917;-90
2023/07/01 06:22:36;;;;;;;;;;;;;;;20.16;100.00;99044.16;5072153;28;19949;-90
2023/07/01 06:25:02;;;;;;;;;;;;;;;20.16;100.00;99044.97;5072479;28;19924;-91
2023/07/01 06:27:28;;;;;;;;;;;;;;;20.17;100.00;99045.81;5072316;28;19920;-91
2023/07/01 06:29:53;;;;;;;;;;;;;;;20.20;100.00;99048.06;5072221;28;19916;-91
2023/07/01 06:32:18;;;;;;;;;;;;;;;20.21;100.00;99047.00;5053722;28;19923;-91
2023/07/01 06:34:44;;;;;;;;;;;;;;;20.21;100.00;99052.38;5083568;28;20002;-92
2023/07/01 06:37:09;;;;;;;;;;;;;;;20.25;100.00;99053.59;5062879;28;19952;-90
2023/07/01 06:39:34;;;;;;;;;;;;;;;20.28;100.00;99053.97;5072067;28;20333;-91
2023/07/01 06:41:59;;;;;;;;;;;;;;;20.34;100.00;99057.66;5072512;28;20368;-92
2023/07/01 06:44:25;;;;;;;;;;;;;;;20.37;100.00;99051.88;5072910;28;19917;-91
2023/07/01 06:46:50;;;;;;;;;;;;;;;20.41;100.00;99053.09;5079677;28;19916;-91
2023/07/01 06:49:15;;;;;;;;;;;;;;;20.46;100.00;99055.94;5078754;28;20016;-92
2023/07/01 06:51:42;;;;;;;;;;;;;;;20.56;100.00;99058.94;5069559;28;20010;-92
2023/07/01 06:54:07;;;;;;;;;;;;;;;20.63;100.00;99057.03;5079012;28;19951;-92
2023/07/01 06:56:32;;;;;;;;;;;;;;;20.73;100.00;99054.69;5069383;28;19920;-91
2023/07/01 06:58:58;;;;;;;;;;;;;;;20.79;100.00;99045.72;5090450;28;19982;-91
2023/07/01 07:01:23;;;;;;;;;;;;;;;20.81;100.00;99050.88;5072892;28;19923;-90
2023/07/01 07:03:48;;;;;;;;;;;;;;;20.82;100.00;99055.22;5077566;28;20382;-91
2023/07/01 07:06:14;;;;;;;;;;;;;;;20.83;100.00;99052.31;5073159;28;19999;-92
2023/07/01 07:08:39;;;;;;;;;;;;;;;20.80;100.00;99058.09;5079117;28;19995;-92
2023/07/01 07:11:04;;;;;;;;;;;;;;;20.77;100.00;99055.06;5078904;28;19917;-91
2023/07/01 07:13:30;;;;;;;;;;;;;;;20.80;100.00;99052.75;5072612;28;19958;-92
2023/07/01 07:15:55;;;;;;;;;;;;;;;20.82;100.00;99056.03;5073255;28;20364;-91
2023/07/01 07:18:20;;;;;;;;;;;;;;;20.87;100.00;99051.84;5078403;28;19916;-91
2023/07/01 07:20:46;;;;;;;;;;;;;;;20.71;100.00;99063.97;5078363;28;19924;-91
2023/07/01 07:23:11;;;;;;;;;;;;;;;20.64;100.00;99061.34;5078063;28;20288;-92
2023/07/01 07:25:36;;;;;;;;;;;;;;;20.66;100.00;99064.63;5060662;28;19916;-92
2023/07/01 07:28:03;;;;;;;;;;;;;;;20.72;100.00;99062.94;5072976;28;19990;-91
2023/07/01 07:30:28;;;;;;;;;;;;;;;20.73;100.00;99069.94;5078300;28;19917;-91
2023/07/01 07:32:53;;;;;;;;;;;;;;;20.70;100.00;99065.00;5079438;28;19919;-90
2023/07/01 07:35:19;;;;;;;;;;;;;;;20.59;100.00;99069.22;5079294;28;19916;-90
2023/07/01 07:37:44;;;;;;;;;;;;;;;20.50;100.00;99056.34;5079005;28;19912;-90
2023/07/01 07:40:10;;;;;;;;;;;;;;;20.51;100.00;99068.66;5079205;28;19924;-91
2023/07/01 07:42:36;;;;;;;;;;;;;;;20.49;100.00;99062.72;5077702;28;19917;-91
2023/07/01 07:45:02;;;;;;;;;;;;;;;20.48;100.00;99058.41;5078720;28;19916;-91
2023/07/01 07:47:28;;;;;;;;;;;;;;;20.53;100.00;99059.38;5079465;28;19920;-91
2023/07/01 07:49:55;;;;;;;;;;;;;;;20.56;100.00;99066.19;5079214;28;20261;-90
2023/07/01 07:52:20;;;;;;;;;;;;;;;20.58;100.00;99059.53;5078464;28;19922;-91
2023/07/01 07:54:46;;;;;;;;;;;;;;;20.68;100.00;99062.53;5077979;28;20012;-90
2023/07/01 07:57:12;;;;;;;;;;;;;;;20.80;100.00;99066.16;5068867;28;19947;-91
2023/07/01 07:59:40;;;;;;;;;;;;;;;20.93;100.00;99053.66;5075481;28;19920;-91
2023/07/01 08:02:05;;;;;;;;;;;;;;;21.04;100.00;99059.09;5061223;28;19970;-93
2023/07/01 08:04:32;;;;;;;;;;;;;;;21.11;100.00;99057.19;5083247;28;20368;-91
2023/07/01 08:06:58;;;;;;;;;;;;;;;21.23;100.00;99046.56;5073337;28;19924;-91
2023/07/01 08:09:23;;;;;;;;;;;;;;;21.37;100.00;99048.06;5069942;28;19916;-91
2023/07/01 08:11:49;;;;;;;;;;;;;;;21.49;100.00;99051.63;5075989;28;19916;-91
2023/07/01 08:14:14;;;;;;;;;;;;;;;21.61;100.00;99055.19;5073202;28;19917;-91
2023/07/01 08:16:39;;;;;;;;;;;;;;;21.56;100.00;99060.41;5053201;28;19923;-91
2023/07/01 08:19:05;;;;;;;;;;;;;;;21.37;100.00;99055.28;5069609;28;19917;-92
2023/07/01 08:21:30;;;;;;;;;;;;;;;21.21;100.00;99052.13;5068559;28;19923;-91
2023/07/01 08:23:55;;;;;;;;;;;;;;;21.14;100.00;99059.44;5072936;28;19947;-90
2023/07/01 08:26:21;;;;;;;;;;;;;;;21.17;100.00;99053.63;5072999;28;19920;-92
2023/07/01 08:28:46;;;;;;;;;;;;;;;21.22;100.00;99045.75;5074839;28;19920;-91
2023/07/01 08:31:13;;;;;;;;;;;;;;;;;;5074018;28;20248;-90
2023/07/01 08:33:39;;;;;;;;;;;;;;;21.29;100.00;99042.97;5074234;28;19916;-91
2023/07/01 08:36:04;;;;;;;;;;;;;;;21.32;100.00;99045.22;5073694;28;19954;-90
2023/07/01 08:38:30;;;;;;;;;;;;;;;21.34;100.00;99045.81;5073424;28;19916;-91
2023/07/01 08:40:55;;;;;;;;;;;;;;;21.35;100.00;99043.94;5074123;28;19916;-90
2023/07/01 08:43:23;;;;;;;;;;;;;;;21.39;100.00;99035.22;5069733;28;20045;-91
2023/07/01 08:45:49;;;;;;;;;;;;;;;21.47;100.00;99037.59;5073364;28;19927;-92
2023/07/01 08:48:17;;;;;;;;;;;;;;;21.55;100.00;99033.81;5073423;28;19912;-92
2023/07/01 08:50:50;;;;;;;;;;;;;;;21.61;100.00;99031.03;5064883;28;20360;-92
2023/07/01 08:53:16;;;;;;;;;;;;;;;21.72;100.00;99034.00;5074614;28;20451;-91
2023/07/01 08:55:41;;;;;;;;;;;;;;;21.78;100.00;99033.09;5074333;28;19976;-92
2023/07/01 08:58:08;;;;;;;;;;;;;;;21.75;100.00;99033.53;5075172;28;20245;-92
2023/07/01 09:00:34;;;;;;;;;;;;;;;21.77;100.00;99031.44;5066392;28;20327;-92
2023/07/01 09:03:01;;;;;;;;;;;;;;;21.78;100.00;99038.47;5078651;28;20000;-93
2023/07/01 09:05:26;;;;;;;;;;;;;;;21.82;100.00;99034.25;5061503;28;19928;-92
2023/07/01 09:07:52;;;;;;;;;;;;;;;21.86;100.00;99040.81;5071612;28;19916;-92
2023/07/01 09:10:18;;;;;;;;;;;;;;;21.88;100.00;99033.34;5083343;28;19916;-92
2023/07/01 09:12:43;;;;;;;;;;;;;;;21.95;100.00;99039.50;5055140;28;19924;-92
2023/07/01 09:15:08;;;;;;;;;;;;;;;21.95;100.00;99034.13;5076791;28;19917;-93
2023/07/01 09:17:38;;;;;;;;;;;;;;;21.86;100.00;99035.44;5097765;28;19959;-92
2023/07/01 09:20:04;;;;;;;;;;;;;;;21.90;100.00;99037.47;5082031;28;19927;-92
2023/07/01 09:22:30;;;;;;;;;;;;;;;22.04;100.00;99033.56;5091220;28;19900;-91
2023/07/01 09:24:56;;;;;;;;;;;;;;;22.16;100.00;99025.53;5074689;28;19915;-91
2023/07/01 09:27:21;;;;;;;;;;;;;;;22.25;100.00;99026.84;5095982;28;19916;-92
2023/07/01 09:29:47;;;;;;;;;;;;;;;22.36;100.00;99026.03;5096719;28;19964;-92
2023/07/01 09:32:24;;;;;;;;;;;;;;;22.44;100.00;99028.38;5095518;28;19917;-92
2023/07/01 09:34:58;;;;;;;;;;;;;;;22.51;100.00;99019.38;5095692;28;19984;-92
2023/07/01 09:37:24;;;;;;;;;;;;;;;22.63;100.00;99025.59;5068432;28;19955;-93
2023/07/01 09:39:51;;;;;;;;;;;;;;;22.73;100.00;99017.81;5079736;28;19912;-92
2023/07/01 09:42:18;;;;;;;;;;;;;;;22.82;100.00;99008.31;5060326;28;19926;-93
2023/07/01 09:45:03;;;;;;;;;;;;;;;22.93;100.00;99015.56;5042329;28;19928;-93
2023/07/01 09:47:29;;;;;;;;;;;;;;;23.00;100.00;99010.06;5066537;28;19916;-92
2023/07/01 09:49:55;;;;;;;;;;;;;;;23.09;100.00;99012.13;5077732;28;19912;-91
2023/07/01 09:52:50;;;;;;;;;;;;;;;23.17;100.00;99013.66;5076276;28;19926;-92
2023/07/01 09:55:16;;;;;;;;;;;;;;;23.26;100.00;99010.38;5062281;28;20007;-91
2023/07/01 09:57:41;;;;;;;;;;;;;;;23.33;100.00;99012.91;5079660;28;19943;-91
2023/07/01 10:00:09;;;;;;;;;;;;;;;23.37;100.00;99010.56;5089875;28;19912;-92
2023/07/01 10:02:35;;;;;;;;;;;;;;;23.36;100.00;99014.31;5092310;28;19917;-92
2023/07/01 10:05:01;;;;;;;;;;;;;;;23.34;100.00;99008.34;5095267;28;19917;-93
2023/07/01 10:07:26;;;;;;;;;;;;;;;23.22;100.00;99009.19;5082131;28;19921;-91
2023/07/01 10:09:52;;;;;;;;;;;;;;;23.21;100.00;99007.56;5078091;28;19923;-92
2023/07/01 10:12:18;;;;;;;;;;;;;;;23.24;100.00;99001.72;5077979;28;20003;-93
2023/07/01 10:14:50;;;;;;;;;;;;;;;23.33;100.00;99010.22;5083351;28;19916;-92
2023/07/01 10:17:16;;;;;;;;;;;;;;;23.43;100.00;99001.53;5085846;28;19926;-94
2023/07/01 10:19:46;;;;;;;;;;;;;;;23.48;100.00;98990.91;5079010;28;19956;-94
2023/07/01 10:22:26;;;;;;;;;;;;;;;23.51;100.00;98990.41;5079081;28;19962;-94
2023/07/01 10:25:02;;;;;;;;;;;;;;;23.51;100.00;98990.41;5075254;28;19916;-93
2023/07/01 10:27:40;;;;;;;;;;;;;;;23.56;100.00;98985.16;5069342;28;19928;-91
2023/07/01 10:30:06;;;;;;;;;;;;;;;23.63;100.00;98988.50;5072835;28;19966;-92
2023/07/01 10:32:32;;;;;;;;;;;;;;;23.62;100.00;98986.88;5081132;28;19916;-91
2023/07/01 10:34:58;;;;;;;;;;;;;;;23.65;100.00;98983.69;5055629;28;19917;-93
2023/07/01 10:37:27;;;;;;;;;;;;;;;23.66;100.00;98983.47;5075622;28;19920;-93
2023/07/01 10:39:53;;;;;;;;;;;;;;;23.58;100.00;98978.44;5076929;28;20372;-93
2023/07/01 10:42:32;;;;;;;;;;;;;;;23.52;100.00;98975.88;5076573;28;19923;-93
2023/07/01 10:45:11;;;;;;;;;;;;;;;23.52;100.00;98975.88;5076164;28;19916;-94
2023/07/01 10:47:43;;;;;;;;;;;;;;;23.53;100.00;98966.75;5075391;28;20012;-93
2023/07/01 10:50:10;;;;;;;;;;;;;;;23.61;100.00;98969.06;5070751;28;19980;-94
2023/07/01 10:52:54;;;;;;;;;;;;;;;23.67;100.00;98968.13;5076992;28;19939;-91
2023/07/01 10:55:36;;;;;;;;;;;;;;;23.72;100.00;98965.50;5070682;28;19928;-92
2023/07/01 10:58:31;;;;;;;;;;;;;;;23.77;100.00;98957.50;5077068;28;19970;-92
2023/07/01 11:00:57;;;;;;;;;;;;;;;23.83;100.00;98967.31;5057737;28;19920;-94
2023/07/01 11:03:38;;;;;;;;;;;;;;;23.87;100.00;98957.69;5083603;28;19973;-93
2023/07/01 11:06:03;;;;;;;;;;;;;;;23.89;100.00;98952.88;5078480;28;20352;-94
2023/07/01 11:08:29;;;;;;;;;;;;;;;23.93;100.00;98950.50;5061218;28;20048;-94
2023/07/01 11:10:55;;;;;;;;;;;;;;;23.97;100.00;98943.59;5053415;28;20363;-92
2023/07/01 11:13:21;;;;;;;;;;;;;;;24.04;100.00;98947.72;5069510;28;19928;-93
2023/07/01 11:16:00;;;;;;;;;;;;;;;24.09;100.00;98945.13;5068322;28;19929;-94
2023/07/01 11:18:39;;;;;;;;;;;;;;;24.17;100.00;98940.38;5078413;28;19995;-92
2023/07/01 11:21:04;;;;;;;;;;;;;;;24.23;100.00;98939.44;5077999;28;20010;-93
2023/07/01 11:23:29;;;;;;;;;;;;;;;24.24;100.00;98935.69;5075630;28;20343;-93
2023/07/01 11:25:54;;;;;;;;;;;;;;;24.27;100.00;98935.22;5077622;28;19963;-94
2023/07/01 11:28:36;;;;;;;;;;;;;;;24.32;100.00;98932.59;5077255;28;19916;-93
2023/07/01 11:31:16;;;;;;;;;;;;;;;24.34;100.00;98927.75;5085786;28;19992;-94
2023/07/01 11:33:48;;;;;;;;;;;;;;;24.35;100.00;98926.69;5080536;28;19923;-94
2023/07/01 11:36:14;;;;;;;;;;;;;;;24.41;100.00;98921.13;5077904;28;19952;-94
2023/07/01 11:38:42;;;;;;;;;;;;;;;24.44;100.00;98922.53;5064431;28;19917;-93
2023/07/01 11:41:07;;;;;;;;;;;;;;;24.45;100.00;98921.44;5071175;28;19974;-93
2023/07/01 11:43:33;;;;;;;;;;;;;;;24.48;100.00;98910.16;5080384;28;19920;-92
2023/07/01 11:45:58;;;;;;;;;;;;;;;24.57;100.00;98908.66;5080771;28;19962;-93
2023/07/01 11:48:31;;;;;;;;;;;;;;;24.69;100.00;98906.66;5082450;28;20264;-94
2023/07/01 11:50:56;;;;;;;;;;;;;;;24.82;100.00;98906.31;5080755;28;19916;-91
2023/07/01 11:53:21;;;;;;;;;;;;;;;24.92;100.00;98904.84;5079599;28;19923;-92
2023/07/01 11:55:46;;;;;;;;;;;;;;;24.99;100.00;98889.25;5080782;28;20003;-91
2023/07/01 11:58:24;;;;;;;;;;;;;;;25.07;100.00;98886.13;5081185;28;19912;-92
2023/07/01 12:00:49;;;;;;;;;;;;;;;25.17;100.00;98905.13;5080781;28;19923;-93
2023/07/01 12:03:16;;;;;;;;;;;;;;;25.26;100.00;98900.94;5080498;28;19916;-91
2023/07/01 12:05:44;;;;;;;;;;;;;;;25.39;100.00;98897.81;5081084;28;19978;-92
2023/07/01 12:08:10;;;;;;;;;;;;;;;25.52;100.00;98892.00;5075343;28;19916;-92
2023/07/01 12:10:35;;;;;;;;;;;;;;;25.66;100.00;98884.34;5080305;28;19923;-93
2023/07/01 12:13:01;;;;;;;;;;;;;;;25.72;100.00;98887.91;5074134;28;19916;-91
2023/07/01 12:15:27;;;;;;;;;;;;;;;25.75;100.00;98887.38;5083411;28;20317;-91
2023/07/01 12:17:53;;;;;;;;;;;;;;;25.94;100.00;98885.91;5060116;28;19917;-91
2023/07/01 12:20:20;;;;;;;;;;;;;;;26.08;100.00;98881.72;5079723;28;19949;-90
2023/07/01 12:22:45;;;;;;;;;;;;;;;26.27;100.00;98869.41;5065677;28;19940;-94
2023/07/01 12:25:11;;;;;;;;;;;;;;;26.43;100.00;98871.16;5061518;28;20374;-92
2023/07/01 12:27:36;;;;;;;;;;;;;;;26.60;100.00;98867.44;5061187;28;19931;-91
2023/07/01 12:30:04;;;;;;;;;;;;;;;26.63;100.00;98867.72;5072919;28;19943;-91
2023/07/01 12:32:29;;;;;;;;;;;;;;;26.83;100.00;98861.59;5066518;28;19933;-91
2023/07/01 12:34:56;;;;;;;;;;;;;;;27.00;100.00;98866.81;5094225;28;19916;-94
2023/07/01 12:37:22;;;;;;;;;;;;;;;27.12;98.92;98857.38;5079190;28;19931;-92